sensor_id;sensor_type;location;lat;lon;timestamp;temperature;humidity
4425;DHT22;2225;53.568;13.266;2023-04-21T00:01:53;10.30;94.30
4425;DHT22;2225;53.568;13.266;2023-04-21T00:04:20;10.30;94.60
4425;DHT22;2225;53.568;13.266;2023-04-21T00:06:48;10.30;94.70
4425;DHT22;2225;53.568;13.266;2023-04-21T00:09:16;10.20;94.90
4425;DHT22;2225;53.568;13.266;2023-04-21T00:11:44;10.20;94.60
4425;DHT22;2225;53.568;13.266;2023-04-21T00:14:11;10.20;94.60
4425;DHT22;2225;53.568;13.266;2023-04-21T00:16:38;10.20;94.60
4425;DHT22;2225;53.568;13.266;2023-04-21T00:19:05;10.20;94.60
4425;DHT22;2225;53.568;13.266;2023-04-21T00:21:33;10.20;94.60
4425;DHT22;2225;53.568;13.266;2023-04-21T00:24:01;10.20;94.60
4425;DHT22;2225;53.568;13.266;2023-04-21T00:26:28;10.20;94.50
4425;DHT22;2225;53.568;13.266;2023-04-21T00:28:55;10.10;94.50
4425;DHT22;2225;53.568;13.266;2023-04-21T00:31:22;10.20;94.60
4425;DHT22;2225;53.568;13.266;2023-04-21T00:33:49;10.10;94.60
4425;DHT22;2225;53.568;13.266;2023-04-21T00:36:17;10.20;94.60
4425;DHT22;2225;53.568;13.266;2023-04-21T00:38:45;10.20;94.60
4425;DHT22;2225;53.568;13.266;2023-04-21T00:41:13;10.10;94.60
4425;DHT22;2225;53.568;13.266;2023-04-21T00:44:00;10.10;94.50
4425;DHT22;2225;53.568;13.266;2023-04-21T00:46:30;10.10;94.70
4425;DHT22;2225;53.568;13.266;2023-04-21T00:48:58;10.10;94.60
4425;DHT22;2225;53.568;13.266;2023-04-21T00:51:27;10.10;94.60
4425;DHT22;2225;53.568;13.266;2023-04-21T00:53:55;10.10;94.70
4425;DHT22;2225;53.568;13.266;2023-04-21T00:56:22;10.10;94.60
4425;DHT22;2225;53.568;13.266;2023-04-21T00:58:50;10.10;94.60
4425;DHT22;2225;53.568;13.266;2023-04-21T01:01:19;10.10;94.60
4425;DHT22;2225;53.568;13.266;2023-04-21T01:03:46;10.10;94.60
4425;DHT22;2225;53.568;13.266;2023-04-21T01:06:14;10.10;94.60
4425;DHT22;2225;53.568;13.266;2023-04-21T01:08:41;10.00;94.60
4425;DHT22;2225;53.568;13.266;2023-04-21T01:11:12;10.00;94.60
4425;DHT22;2225;53.568;13.266;2023-04-21T01:13:40;10.00;94.70
4425;DHT22;2225;53.568;13.266;2023-04-21T01:16:07;10.00;94.70
4425;DHT22;2225;53.568;13.266;2023-04-21T01:18:34;10.00;94.70
4425;DHT22;2225;53.568;13.266;2023-04-21T01:21:03;10.00;94.70
4425;DHT22;2225;53.568;13.266;2023-04-21T01:23:30;9.90;94.70
4425;DHT22;2225;53.568;13.266;2023-04-21T01:25:57;9.90;94.70
4425;DHT22;2225;53.568;13.266;2023-04-21T01:28:25;9.90;94.70
4425;DHT22;2225;53.568;13.266;2023-04-21T01:30:52;9.90;94.80
4425;DHT22;2225;53.568;13.266;2023-04-21T01:33:21;9.90;94.70
4425;DHT22;2225;53.568;13.266;2023-04-21T01:35:48;9.80;94.70
4425;DHT22;2225;53.568;13.266;2023-04-21T01:38:18;9.80;94.80
4425;DHT22;2225;53.568;13.266;2023-04-21T01:40:48;9.80;94.80
4425;DHT22;2225;53.568;13.266;2023-04-21T01:43:20;9.80;94.90
4425;DHT22;2225;53.568;13.266;2023-04-21T01:45:48;9.80;94.90
4425;DHT22;2225;53.568;13.266;2023-04-21T01:48:15;9.70;94.80
4425;DHT22;2225;53.568;13.266;2023-04-21T01:50:42;9.70;94.80
4425;DHT22;2225;53.568;13.266;2023-04-21T01:53:09;9.70;94.80
4425;DHT22;2225;53.568;13.266;2023-04-21T01:55:36;9.70;94.80
4425;DHT22;2225;53.568;13.266;2023-04-21T01:58:06;9.70;94.90
4425;DHT22;2225;53.568;13.266;2023-04-21T02:00:34;9.70;95.00
4425;DHT22;2225;53.568;13.266;2023-04-21T02:03:03;9.70;95.00
4425;DHT22;2225;53.568;13.266;2023-04-21T02:05:30;9.70;94.90
4425;DHT22;2225;53.568;13.266;2023-04-21T02:07:57;9.60;94.90
4425;DHT22;2225;53.568;13.266;2023-04-21T02:10:24;9.60;94.90
4425;DHT22;2225;53.568;13.266;2023-04-21T02:12:51;9.60;94.80
4425;DHT22;2225;53.568;13.266;2023-04-21T02:15:18;9.60;94.80
4425;DHT22;2225;53.568;13.266;2023-04-21T02:17:45;9.60;94.80
4425;DHT22;2225;53.568;13.266;2023-04-21T02:20:12;9.60;94.80
4425;DHT22;2225;53.568;13.266;2023-04-21T02:22:39;9.60;94.80
4425;DHT22;2225;53.568;13.266;2023-04-21T02:25:07;9.60;94.90
4425;DHT22;2225;53.568;13.266;2023-04-21T02:27:34;9.60;94.90
4425;DHT22;2225;53.568;13.266;2023-04-21T02:30:01;9.60;95.00
4425;DHT22;2225;53.568;13.266;2023-04-21T02:32:28;9.50;95.00
4425;DHT22;2225;53.568;13.266;2023-04-21T02:34:55;9.50;95.00
4425;DHT22;2225;53.568;13.266;2023-04-21T02:37:22;9.50;95.00
4425;DHT22;2225;53.568;13.266;2023-04-21T02:39:52;9.50;95.00
4425;DHT22;2225;53.568;13.266;2023-04-21T02:42:19;9.50;95.10
4425;DHT22;2225;53.568;13.266;2023-04-21T02:44:46;9.40;95.10
4425;DHT22;2225;53.568;13.266;2023-04-21T02:47:14;9.40;95.10
4425;DHT22;2225;53.568;13.266;2023-04-21T02:49:42;9.40;95.10
4425;DHT22;2225;53.568;13.266;2023-04-21T02:52:11;9.40;95.00
4425;DHT22;2225;53.568;13.266;2023-04-21T02:54:38;9.40;95.00
4425;DHT22;2225;53.568;13.266;2023-04-21T02:57:05;9.40;94.90
4425;DHT22;2225;53.568;13.266;2023-04-21T02:59:32;9.40;94.90
4425;DHT22;2225;53.568;13.266;2023-04-21T03:01:59;9.40;95.00
4425;DHT22;2225;53.568;13.266;2023-04-21T03:04:26;9.40;95.00
4425;DHT22;2225;53.568;13.266;2023-04-21T03:06:53;9.40;95.00
4425;DHT22;2225;53.568;13.266;2023-04-21T03:09:20;9.30;95.00
4425;DHT22;2225;53.568;13.266;2023-04-21T03:11:47;9.30;95.10
4425;DHT22;2225;53.568;13.266;2023-04-21T03:14:14;9.30;95.10
4425;DHT22;2225;53.568;13.266;2023-04-21T03:16:41;9.30;95.20
4425;DHT22;2225;53.568;13.266;2023-04-21T03:19:08;9.30;95.20
4425;DHT22;2225;53.568;13.266;2023-04-21T03:21:37;9.30;95.20
4425;DHT22;2225;53.568;13.266;2023-04-21T03:24:05;9.30;95.20
4425;DHT22;2225;53.568;13.266;2023-04-21T03:26:33;9.20;95.20
4425;DHT22;2225;53.568;13.266;2023-04-21T03:28:59;9.20;95.10
4425;DHT22;2225;53.568;13.266;2023-04-21T03:31:26;9.20;95.20
4425;DHT22;2225;53.568;13.266;2023-04-21T03:33:53;9.20;95.20
4425;DHT22;2225;53.568;13.266;2023-04-21T03:36:20;9.20;95.20
4425;DHT22;2225;53.568;13.266;2023-04-21T03:38:47;9.10;95.10
4425;DHT22;2225;53.568;13.266;2023-04-21T03:41:15;9.10;95.10
4425;DHT22;2225;53.568;13.266;2023-04-21T03:43:42;9.10;95.10
4425;DHT22;2225;53.568;13.266;2023-04-21T03:46:18;9.10;95.10
4425;DHT22;2225;53.568;13.266;2023-04-21T03:48:47;9.10;95.20
4425;DHT22;2225;53.568;13.266;2023-04-21T03:51:14;9.10;95.10
4425;DHT22;2225;53.568;13.266;2023-04-21T03:53:41;9.10;95.00
4425;DHT22;2225;53.568;13.266;2023-04-21T03:56:08;9.00;95.00
4425;DHT22;2225;53.568;13.266;2023-04-21T03:58:35;9.00;94.90
4425;DHT22;2225;53.568;13.266;2023-04-21T04:01:05;9.00;95.00
4425;DHT22;2225;53.568;13.266;2023-04-21T04:03:33;9.00;95.00
4425;DHT22;2225;53.568;13.266;2023-04-21T04:06:00;9.00;95.10
4425;DHT22;2225;53.568;13.266;2023-04-21T04:08:29;9.00;95.10
4425;DHT22;2225;53.568;13.266;2023-04-21T04:10:56;8.90;95.20
4425;DHT22;2225;53.568;13.266;2023-04-21T04:13:23;8.90;95.20
4425;DHT22;2225;53.568;13.266;2023-04-21T04:15:52;8.90;95.30
4425;DHT22;2225;53.568;13.266;2023-04-21T04:18:19;8.90;95.40
4425;DHT22;2225;53.568;13.266;2023-04-21T04:20:46;8.90;95.50
4425;DHT22;2225;53.568;13.266;2023-04-21T04:23:13;8.90;95.60
4425;DHT22;2225;53.568;13.266;2023-04-21T04:25:40;9.00;95.70
4425;DHT22;2225;53.568;13.266;2023-04-21T04:28:08;9.00;95.70
4425;DHT22;2225;53.568;13.266;2023-04-21T04:30:35;9.10;95.80
4425;DHT22;2225;53.568;13.266;2023-04-21T04:33:02;9.10;95.90
4425;DHT22;2225;53.568;13.266;2023-04-21T04:35:29;9.10;95.90
4425;DHT22;2225;53.568;13.266;2023-04-21T04:37:56;9.20;95.80
4425;DHT22;2225;53.568;13.266;2023-04-21T04:40:24;9.30;95.70
4425;DHT22;2225;53.568;13.266;2023-04-21T04:42:51;9.30;95.70
4425;DHT22;2225;53.568;13.266;2023-04-21T04:45:18;9.40;95.70
4425;DHT22;2225;53.568;13.266;2023-04-21T04:47:48;9.50;95.60
4425;DHT22;2225;53.568;13.266;2023-04-21T04:50:15;9.50;95.50
4425;DHT22;2225;53.568;13.266;2023-04-21T04:52:42;9.60;95.30
4425;DHT22;2225;53.568;13.266;2023-04-21T04:55:12;9.70;95.20
4425;DHT22;2225;53.568;13.266;2023-04-21T04:57:39;9.70;95.10
4425;DHT22;2225;53.568;13.266;2023-04-21T05:00:07;9.80;95.10
4425;DHT22;2225;53.568;13.266;2023-04-21T05:02:38;9.80;94.90
4425;DHT22;2225;53.568;13.266;2023-04-21T05:05:05;9.90;94.60
4425;DHT22;2225;53.568;13.266;2023-04-21T05:07:33;9.90;94.50
4425;DHT22;2225;53.568;13.266;2023-04-21T05:10:00;9.90;94.40
4425;DHT22;2225;53.568;13.266;2023-04-21T05:12:30;10.00;94.30
4425;DHT22;2225;53.568;13.266;2023-04-21T05:14:59;10.00;94.40
4425;DHT22;2225;53.568;13.266;2023-04-21T05:17:26;10.00;94.40
4425;DHT22;2225;53.568;13.266;2023-04-21T05:19:56;10.00;94.30
4425;DHT22;2225;53.568;13.266;2023-04-21T05:22:23;10.00;94.40
4425;DHT22;2225;53.568;13.266;2023-04-21T05:24:52;10.00;94.50
4425;DHT22;2225;53.568;13.266;2023-04-21T05:27:19;10.00;94.60
4425;DHT22;2225;53.568;13.266;2023-04-21T05:29:46;10.10;94.70
4425;DHT22;2225;53.568;13.266;2023-04-21T05:32:13;10.10;94.80
4425;DHT22;2225;53.568;13.266;2023-04-21T05:34:40;10.20;94.80
4425;DHT22;2225;53.568;13.266;2023-04-21T05:37:09;10.20;94.80
4425;DHT22;2225;53.568;13.266;2023-04-21T05:39:37;10.30;94.90
4425;DHT22;2225;53.568;13.266;2023-04-21T05:42:04;10.40;94.80
4425;DHT22;2225;53.568;13.266;2023-04-21T05:44:32;10.40;94.90
4425;DHT22;2225;53.568;13.266;2023-04-21T05:46:59;10.50;94.80
4425;DHT22;2225;53.568;13.266;2023-04-21T05:49:25;10.60;94.90
4425;DHT22;2225;53.568;13.266;2023-04-21T05:51:52;10.60;95.00
4425;DHT22;2225;53.568;13.266;2023-04-21T05:54:19;10.70;95.10
4425;DHT22;2225;53.568;13.266;2023-04-21T05:56:47;10.80;95.10
4425;DHT22;2225;53.568;13.266;2023-04-21T05:59:14;10.90;95.10
4425;DHT22;2225;53.568;13.266;2023-04-21T06:01:42;11.00;95.10
4425;DHT22;2225;53.568;13.266;2023-04-21T06:04:09;11.10;94.90
4425;DHT22;2225;53.568;13.266;2023-04-21T06:06:36;11.20;94.90
4425;DHT22;2225;53.568;13.266;2023-04-21T06:09:03;11.30;94.70
4425;DHT22;2225;53.568;13.266;2023-04-21T06:11:31;11.40;94.70
4425;DHT22;2225;53.568;13.266;2023-04-21T06:13:58;11.60;94.60
4425;DHT22;2225;53.568;13.266;2023-04-21T06:16:26;11.70;94.40
4425;DHT22;2225;53.568;13.266;2023-04-21T06:18:53;11.70;94.40
4425;DHT22;2225;53.568;13.266;2023-04-21T06:21:20;11.90;94.40
4425;DHT22;2225;53.568;13.266;2023-04-21T06:23:47;12.00;94.30
4425;DHT22;2225;53.568;13.266;2023-04-21T06:26:14;12.10;94.40
4425;DHT22;2225;53.568;13.266;2023-04-21T06:28:41;12.20;94.00
4425;DHT22;2225;53.568;13.266;2023-04-21T06:31:08;12.30;93.70
4425;DHT22;2225;53.568;13.266;2023-04-21T06:33:40;12.40;93.70
4425;DHT22;2225;53.568;13.266;2023-04-21T06:36:07;12.50;93.60
4425;DHT22;2225;53.568;13.266;2023-04-21T06:38:34;12.70;93.40
4425;DHT22;2225;53.568;13.266;2023-04-21T06:41:01;12.80;93.30
4425;DHT22;2225;53.568;13.266;2023-04-21T06:43:30;12.90;93.20
4425;DHT22;2225;53.568;13.266;2023-04-21T06:45:57;13.00;92.80
4425;DHT22;2225;53.568;13.266;2023-04-21T06:48:24;13.10;92.60
4425;DHT22;2225;53.568;13.266;2023-04-21T06:50:51;13.20;92.70
4425;DHT22;2225;53.568;13.266;2023-04-21T06:53:18;13.30;92.80
4425;DHT22;2225;53.568;13.266;2023-04-21T06:55:47;13.40;92.60
4425;DHT22;2225;53.568;13.266;2023-04-21T06:58:14;13.50;92.40
4425;DHT22;2225;53.568;13.266;2023-04-21T07:00:41;13.60;91.80
4425;DHT22;2225;53.568;13.266;2023-04-21T07:03:08;13.70;91.70
4425;DHT22;2225;53.568;13.266;2023-04-21T07:05:35;13.80;91.80
4425;DHT22;2225;53.568;13.266;2023-04-21T07:08:02;13.90;91.60
4425;DHT22;2225;53.568;13.266;2023-04-21T07:10:29;14.00;91.60
4425;DHT22;2225;53.568;13.266;2023-04-21T07:12:56;14.10;91.40
4425;DHT22;2225;53.568;13.266;2023-04-21T07:15:23;14.10;90.80
4425;DHT22;2225;53.568;13.266;2023-04-21T07:17:49;14.30;91.00
4425;DHT22;2225;53.568;13.266;2023-04-21T07:20:17;14.30;90.80
4425;DHT22;2225;53.568;13.266;2023-04-21T07:22:44;14.40;90.70
4425;DHT22;2225;53.568;13.266;2023-04-21T07:25:11;14.50;90.70
4425;DHT22;2225;53.568;13.266;2023-04-21T07:27:38;14.60;90.60
4425;DHT22;2225;53.568;13.266;2023-04-21T07:30:05;14.70;91.10
4425;DHT22;2225;53.568;13.266;2023-04-21T07:32:33;14.80;90.20
4425;DHT22;2225;53.568;13.266;2023-04-21T07:35:00;14.90;90.00
4425;DHT22;2225;53.568;13.266;2023-04-21T07:37:28;15.00;90.10
4425;DHT22;2225;53.568;13.266;2023-04-21T07:39:55;15.00;89.20
4425;DHT22;2225;53.568;13.266;2023-04-21T07:42:22;15.10;89.10
4425;DHT22;2225;53.568;13.266;2023-04-21T07:44:49;15.20;89.60
4425;DHT22;2225;53.568;13.266;2023-04-21T07:47:16;15.40;89.40
4425;DHT22;2225;53.568;13.266;2023-04-21T07:49:43;15.40;89.20
4425;DHT22;2225;53.568;13.266;2023-04-21T07:52:09;15.50;89.20
4425;DHT22;2225;53.568;13.266;2023-04-21T07:54:36;15.60;87.60
4425;DHT22;2225;53.568;13.266;2023-04-21T07:57:03;15.70;87.40
4425;DHT22;2225;53.568;13.266;2023-04-21T07:59:30;15.80;87.80
4425;DHT22;2225;53.568;13.266;2023-04-21T08:01:57;15.90;88.30
4425;DHT22;2225;53.568;13.266;2023-04-21T08:04:24;16.00;88.10
4425;DHT22;2225;53.568;13.266;2023-04-21T08:06:52;16.10;88.50
4425;DHT22;2225;53.568;13.266;2023-04-21T08:09:19;16.20;87.50
4425;DHT22;2225;53.568;13.266;2023-04-21T08:11:46;16.30;87.30
4425;DHT22;2225;53.568;13.266;2023-04-21T08:14:13;16.30;86.80
4425;DHT22;2225;53.568;13.266;2023-04-21T08:16:40;16.40;86.70
4425;DHT22;2225;53.568;13.266;2023-04-21T08:19:08;16.50;87.20
4425;DHT22;2225;53.568;13.266;2023-04-21T08:21:36;16.60;87.10
4425;DHT22;2225;53.568;13.266;2023-04-21T08:24:03;16.60;86.40
4425;DHT22;2225;53.568;13.266;2023-04-21T08:26:30;16.70;85.20
4425;DHT22;2225;53.568;13.266;2023-04-21T08:28:59;16.80;84.90
4425;DHT22;2225;53.568;13.266;2023-04-21T08:31:29;16.90;84.80
4425;DHT22;2225;53.568;13.266;2023-04-21T08:33:57;16.90;85.10
4425;DHT22;2225;53.568;13.266;2023-04-21T08:36:28;17.00;84.40
4425;DHT22;2225;53.568;13.266;2023-04-21T08:38:56;17.00;83.40
4425;DHT22;2225;53.568;13.266;2023-04-21T08:41:24;17.10;83.60
4425;DHT22;2225;53.568;13.266;2023-04-21T08:43:51;17.10;83.50
4425;DHT22;2225;53.568;13.266;2023-04-21T08:46:19;17.20;83.30
4425;DHT22;2225;53.568;13.266;2023-04-21T08:48:46;17.20;82.50
4425;DHT22;2225;53.568;13.266;2023-04-21T08:51:20;17.30;82.70
4425;DHT22;2225;53.568;13.266;2023-04-21T08:53:48;17.40;83.20
4425;DHT22;2225;53.568;13.266;2023-04-21T08:56:15;17.50;83.30
4425;DHT22;2225;53.568;13.266;2023-04-21T08:58:42;17.60;83.60
4425;DHT22;2225;53.568;13.266;2023-04-21T09:01:09;17.70;82.60
4425;DHT22;2225;53.568;13.266;2023-04-21T09:03:36;17.80;82.50
4425;DHT22;2225;53.568;13.266;2023-04-21T09:06:06;17.80;83.00
4425;DHT22;2225;53.568;13.266;2023-04-21T09:08:41;17.90;81.20
4425;DHT22;2225;53.568;13.266;2023-04-21T09:11:13;18.00;81.50
4425;DHT22;2225;53.568;13.266;2023-04-21T09:13:41;18.10;81.20
4425;DHT22;2225;53.568;13.266;2023-04-21T09:16:20;18.20;81.80
4425;DHT22;2225;53.568;13.266;2023-04-21T09:18:48;18.30;81.80
4425;DHT22;2225;53.568;13.266;2023-04-21T09:21:17;18.40;80.00
4425;DHT22;2225;53.568;13.266;2023-04-21T09:23:48;18.50;80.00
4425;DHT22;2225;53.568;13.266;2023-04-21T09:26:20;18.60;79.30
4425;DHT22;2225;53.568;13.266;2023-04-21T09:28:51;18.70;79.20
4425;DHT22;2225;53.568;13.266;2023-04-21T09:31:20;18.70;79.40
4425;DHT22;2225;53.568;13.266;2023-04-21T09:33:56;18.80;79.20
4425;DHT22;2225;53.568;13.266;2023-04-21T09:36:28;18.90;79.20
4425;DHT22;2225;53.568;13.266;2023-04-21T09:38:58;19.00;78.80
4425;DHT22;2225;53.568;13.266;2023-04-21T09:41:30;19.10;79.40
4425;DHT22;2225;53.568;13.266;2023-04-21T09:43:58;19.10;78.20
4425;DHT22;2225;53.568;13.266;2023-04-21T09:46:34;19.20;78.20
4425;DHT22;2225;53.568;13.266;2023-04-21T09:49:02;19.30;78.40
4425;DHT22;2225;53.568;13.266;2023-04-21T09:51:30;19.30;77.80
4425;DHT22;2225;53.568;13.266;2023-04-21T09:54:20;19.40;78.00
4425;DHT22;2225;53.568;13.266;2023-04-21T09:56:52;19.50;77.60
4425;DHT22;2225;53.568;13.266;2023-04-21T09:59:26;19.50;78.00
4425;DHT22;2225;53.568;13.266;2023-04-21T10:01:57;19.60;77.50
4425;DHT22;2225;53.568;13.266;2023-04-21T10:04:27;19.70;76.80
4425;DHT22;2225;53.568;13.266;2023-04-21T10:06:55;19.80;76.60
4425;DHT22;2225;53.568;13.266;2023-04-21T10:09:24;19.80;74.90
4425;DHT22;2225;53.568;13.266;2023-04-21T10:11:54;19.90;75.20
4425;DHT22;2225;53.568;13.266;2023-04-21T10:14:24;20.00;74.30
4425;DHT22;2225;53.568;13.266;2023-04-21T10:17:04;20.10;74.60
4425;DHT22;2225;53.568;13.266;2023-04-21T10:19:34;20.20;74.20
4425;DHT22;2225;53.568;13.266;2023-04-21T10:22:06;20.30;74.50
4425;DHT22;2225;53.568;13.266;2023-04-21T10:24:38;20.40;74.30
4425;DHT22;2225;53.568;13.266;2023-04-21T10:27:11;20.40;72.10
4425;DHT22;2225;53.568;13.266;2023-04-21T10:29:38;20.50;71.60
4425;DHT22;2225;53.568;13.266;2023-04-21T10:32:37;20.60;71.30
4425;DHT22;2225;53.568;13.266;2023-04-21T10:35:21;20.60;71.00
4425;DHT22;2225;53.568;13.266;2023-04-21T10:37:49;20.70;71.00
4425;DHT22;2225;53.568;13.266;2023-04-21T10:43:41;20.90;69.90
4425;DHT22;2225;53.568;13.266;2023-04-21T10:46:34;21.00;69.70
4425;DHT22;2225;53.568;13.266;2023-04-21T10:49:06;21.00;69.20
4425;DHT22;2225;53.568;13.266;2023-04-21T10:52:01;21.10;70.00
4425;DHT22;2225;53.568;13.266;2023-04-21T10:54:41;21.20;68.30
4425;DHT22;2225;53.568;13.266;2023-04-21T10:57:13;21.30;69.00
4425;DHT22;2225;53.568;13.266;2023-04-21T10:59:42;21.30;68.70
4425;DHT22;2225;53.568;13.266;2023-04-21T11:02:11;21.40;69.50
4425;DHT22;2225;53.568;13.266;2023-04-21T11:04:39;21.40;69.30
4425;DHT22;2225;53.568;13.266;2023-04-21T11:07:16;21.40;69.60
4425;DHT22;2225;53.568;13.266;2023-04-21T11:09:45;21.50;69.60
4425;DHT22;2225;53.568;13.266;2023-04-21T11:12:15;21.50;68.70
4425;DHT22;2225;53.568;13.266;2023-04-21T11:14:46;21.60;68.80
4425;DHT22;2225;53.568;13.266;2023-04-21T11:17:16;21.60;68.70
4425;DHT22;2225;53.568;13.266;2023-04-21T11:19:46;21.60;68.50
4425;DHT22;2225;53.568;13.266;2023-04-21T11:22:18;21.70;67.30
4425;DHT22;2225;53.568;13.266;2023-04-21T11:24:48;21.70;67.70
4425;DHT22;2225;53.568;13.266;2023-04-21T11:27:16;21.80;66.40
4425;DHT22;2225;53.568;13.266;2023-04-21T11:29:44;21.80;66.50
4425;DHT22;2225;53.568;13.266;2023-04-21T11:32:12;21.90;66.60
4425;DHT22;2225;53.568;13.266;2023-04-21T11:34:40;21.90;65.70
4425;DHT22;2225;53.568;13.266;2023-04-21T11:37:09;22.00;64.30
4425;DHT22;2225;53.568;13.266;2023-04-21T11:39:39;22.00;64.10
4425;DHT22;2225;53.568;13.266;2023-04-21T11:42:07;22.10;64.00
4425;DHT22;2225;53.568;13.266;2023-04-21T11:44:41;22.10;64.60
4425;DHT22;2225;53.568;13.266;2023-04-21T11:47:26;22.10;64.30
4425;DHT22;2225;53.568;13.266;2023-04-21T11:49:56;22.10;63.00
4425;DHT22;2225;53.568;13.266;2023-04-21T11:52:28;22.20;63.40
4425;DHT22;2225;53.568;13.266;2023-04-21T11:55:05;22.20;62.10
4425;DHT22;2225;53.568;13.266;2023-04-21T11:57:38;22.30;62.80
4425;DHT22;2225;53.568;13.266;2023-04-21T12:00:08;22.30;61.00
4425;DHT22;2225;53.568;13.266;2023-04-21T12:02:42;22.30;61.50
4425;DHT22;2225;53.568;13.266;2023-04-21T12:05:11;22.40;62.20
4425;DHT22;2225;53.568;13.266;2023-04-21T12:07:43;22.40;60.80
4425;DHT22;2225;53.568;13.266;2023-04-21T12:10:15;22.50;59.50
4425;DHT22;2225;53.568;13.266;2023-04-21T12:12:43;22.50;60.40
4425;DHT22;2225;53.568;13.266;2023-04-21T12:15:15;22.50;59.70
4425;DHT22;2225;53.568;13.266;2023-04-21T12:17:52;22.60;59.80
4425;DHT22;2225;53.568;13.266;2023-04-21T12:20:22;22.60;58.60
4425;DHT22;2225;53.568;13.266;2023-04-21T12:22:50;22.60;57.80
4425;DHT22;2225;53.568;13.266;2023-04-21T12:25:17;22.60;58.00
4425;DHT22;2225;53.568;13.266;2023-04-21T12:27:52;22.60;57.10
4425;DHT22;2225;53.568;13.266;2023-04-21T12:30:23;22.60;57.90
4425;DHT22;2225;53.568;13.266;2023-04-21T12:32:49;22.60;59.00
4425;DHT22;2225;53.568;13.266;2023-04-21T12:35:18;22.60;58.80
4425;DHT22;2225;53.568;13.266;2023-04-21T12:37:44;22.60;58.50
4425;DHT22;2225;53.568;13.266;2023-04-21T12:40:12;22.60;58.60
4425;DHT22;2225;53.568;13.266;2023-04-21T12:42:39;22.60;57.50
4425;DHT22;2225;53.568;13.266;2023-04-21T12:45:06;22.60;58.00
4425;DHT22;2225;53.568;13.266;2023-04-21T12:47:34;22.60;58.00
4425;DHT22;2225;53.568;13.266;2023-04-21T12:50:02;22.60;58.20
4425;DHT22;2225;53.568;13.266;2023-04-21T12:52:30;22.70;57.50
4425;DHT22;2225;53.568;13.266;2023-04-21T12:54:56;22.60;57.30
4425;DHT22;2225;53.568;13.266;2023-04-21T12:57:23;22.70;58.20
4425;DHT22;2225;53.568;13.266;2023-04-21T12:59:50;22.70;57.80
4425;DHT22;2225;53.568;13.266;2023-04-21T13:02:17;22.70;57.10
4425;DHT22;2225;53.568;13.266;2023-04-21T13:04:44;22.60;56.00
4425;DHT22;2225;53.568;13.266;2023-04-21T13:07:11;22.60;56.90
4425;DHT22;2225;53.568;13.266;2023-04-21T13:09:39;22.60;56.10
4425;DHT22;2225;53.568;13.266;2023-04-21T13:12:06;22.60;56.40
4425;DHT22;2225;53.568;13.266;2023-04-21T13:14:33;22.60;56.60
4425;DHT22;2225;53.568;13.266;2023-04-21T13:17:00;22.60;56.90
4425;DHT22;2225;53.568;13.266;2023-04-21T13:19:27;22.60;56.90
4425;DHT22;2225;53.568;13.266;2023-04-21T13:21:55;22.60;56.50
4425;DHT22;2225;53.568;13.266;2023-04-21T13:24:22;22.60;56.10
4425;DHT22;2225;53.568;13.266;2023-04-21T13:26:51;22.60;57.10
4425;DHT22;2225;53.568;13.266;2023-04-21T13:29:18;22.60;56.80
4425;DHT22;2225;53.568;13.266;2023-04-21T13:31:45;22.60;57.40
4425;DHT22;2225;53.568;13.266;2023-04-21T13:34:12;22.60;56.40
4425;DHT22;2225;53.568;13.266;2023-04-21T13:36:39;22.50;56.20
4425;DHT22;2225;53.568;13.266;2023-04-21T13:39:10;22.50;56.10
4425;DHT22;2225;53.568;13.266;2023-04-21T13:41:37;22.50;56.60
4425;DHT22;2225;53.568;13.266;2023-04-21T13:44:04;22.50;56.40
4425;DHT22;2225;53.568;13.266;2023-04-21T13:46:31;22.40;55.10
4425;DHT22;2225;53.568;13.266;2023-04-21T13:48:58;22.50;56.00
4425;DHT22;2225;53.568;13.266;2023-04-21T13:51:25;22.50;55.80
4425;DHT22;2225;53.568;13.266;2023-04-21T13:53:52;22.50;54.30
4425;DHT22;2225;53.568;13.266;2023-04-21T13:56:19;22.50;54.90
4425;DHT22;2225;53.568;13.266;2023-04-21T13:58:46;22.50;53.60
4425;DHT22;2225;53.568;13.266;2023-04-21T14:01:13;22.50;53.90
4425;DHT22;2225;53.568;13.266;2023-04-21T14:03:40;22.50;53.60
4425;DHT22;2225;53.568;13.266;2023-04-21T14:06:07;22.50;54.10
4425;DHT22;2225;53.568;13.266;2023-04-21T14:08:34;22.40;54.50
4425;DHT22;2225;53.568;13.266;2023-04-21T14:11:02;22.50;54.80
4425;DHT22;2225;53.568;13.266;2023-04-21T14:13:30;22.50;54.80
4425;DHT22;2225;53.568;13.266;2023-04-21T14:16:07;22.50;54.10
4425;DHT22;2225;53.568;13.266;2023-04-21T14:18:35;22.50;54.00
4425;DHT22;2225;53.568;13.266;2023-04-21T14:21:03;22.40;53.00
4425;DHT22;2225;53.568;13.266;2023-04-21T14:23:30;22.50;54.20
4425;DHT22;2225;53.568;13.266;2023-04-21T14:25:57;22.40;53.90
4425;DHT22;2225;53.568;13.266;2023-04-21T14:28:24;22.40;54.10
4425;DHT22;2225;53.568;13.266;2023-04-21T14:30:51;22.30;53.10
4425;DHT22;2225;53.568;13.266;2023-04-21T14:33:18;22.30;53.40
4425;DHT22;2225;53.568;13.266;2023-04-21T14:35:45;22.30;53.50
4425;DHT22;2225;53.568;13.266;2023-04-21T14:38:12;22.30;53.10
4425;DHT22;2225;53.568;13.266;2023-04-21T14:40:39;22.20;52.70
4425;DHT22;2225;53.568;13.266;2023-04-21T14:43:06;22.20;52.60
4425;DHT22;2225;53.568;13.266;2023-04-21T14:45:36;22.20;52.20
4425;DHT22;2225;53.568;13.266;2023-04-21T14:48:03;22.20;51.90
4425;DHT22;2225;53.568;13.266;2023-04-21T14:50:31;22.10;51.90
4425;DHT22;2225;53.568;13.266;2023-04-21T14:52:58;22.20;52.20
4425;DHT22;2225;53.568;13.266;2023-04-21T14:55:25;22.10;52.40
4425;DHT22;2225;53.568;13.266;2023-04-21T14:57:52;22.00;52.10
4425;DHT22;2225;53.568;13.266;2023-04-21T15:00:19;22.00;52.80
4425;DHT22;2225;53.568;13.266;2023-04-21T15:02:46;22.00;53.20
4425;DHT22;2225;53.568;13.266;2023-04-21T15:05:13;22.00;53.80
4425;DHT22;2225;53.568;13.266;2023-04-21T15:07:40;22.00;53.90
4425;DHT22;2225;53.568;13.266;2023-04-21T15:10:08;22.00;54.40
4425;DHT22;2225;53.568;13.266;2023-04-21T15:12:36;22.00;53.80
4425;DHT22;2225;53.568;13.266;2023-04-21T15:15:05;22.00;51.00
4425;DHT22;2225;53.568;13.266;2023-04-21T15:17:32;22.00;51.00
4425;DHT22;2225;53.568;13.266;2023-04-21T15:19:59;22.00;51.80
4425;DHT22;2225;53.568;13.266;2023-04-21T15:22:26;22.00;50.70
4425;DHT22;2225;53.568;13.266;2023-04-21T15:24:53;22.00;51.20
4425;DHT22;2225;53.568;13.266;2023-04-21T15:27:20;21.90;50.50
4425;DHT22;2225;53.568;13.266;2023-04-21T15:29:47;21.90;50.80
4425;DHT22;2225;53.568;13.266;2023-04-21T15:32:14;21.90;50.80
4425;DHT22;2225;53.568;13.266;2023-04-21T15:34:41;21.90;51.20
4425;DHT22;2225;53.568;13.266;2023-04-21T15:37:08;21.80;49.60
4425;DHT22;2225;53.568;13.266;2023-04-21T15:39:35;21.80;48.60
4425;DHT22;2225;53.568;13.266;2023-04-21T15:42:03;21.70;48.00
4425;DHT22;2225;53.568;13.266;2023-04-21T15:44:30;21.60;47.50
4425;DHT22;2225;53.568;13.266;2023-04-21T15:46:59;21.60;48.20
4425;DHT22;2225;53.568;13.266;2023-04-21T15:49:26;21.50;47.80
4425;DHT22;2225;53.568;13.266;2023-04-21T15:51:57;21.50;47.60
4425;DHT22;2225;53.568;13.266;2023-04-21T15:54:24;21.50;47.70
4425;DHT22;2225;53.568;13.266;2023-04-21T15:56:51;21.40;46.70
4425;DHT22;2225;53.568;13.266;2023-04-21T15:59:18;21.30;46.70
4425;DHT22;2225;53.568;13.266;2023-04-21T16:01:45;21.20;47.40